CYFC

Fredericton Airport

Fredericton, New Brunswick, Canada
TAF CYFC 221139Z 2212/2224 29012G22KT P6SM SCT060 TEMPO 2212/2215 5SM -SN BKN030 BKN060 FM221500 30015G30KT P6SM FEW020 BKN030 FM221800 30018G30KT P6SM FEW030 BECMG 2220/2222 29015G25KT RMK FCST BASED ON AUTO OBS. NXT FCST BY 221800Z
Issued Valid From Valid To
Jan-22 @ 11:39 UTC
(6 hours ago)
Jan-22 @ 12:00 UTC
(6 hours ago)
Jan-23 @ 00:00 UTC
(in 6 hours)
Expired Click to View Jan-22 @ 12:00 to Jan-22 @ 15:00
TAF CYFC 221139Z 2212/2224 29012G22KT P6SM SCT060
Wind Visibility Clouds
290° at 12 knots
 Gusting to 22 knots
Greater than 6 miles
  • Scattered at 6,000' AGL
Expired Click to View Jan-22 @ 12:00 to Jan-22 @ 15:00
TEMPO 2212/2215 5SM -SN BKN030 BKN060
Visibility Clouds Conditions
5 miles
  • Broken at 3,000' AGL
  • Broken at 6,000' AGL
  • Light Snow
From Jan-22 @ 15:00 to Jan-22 @ 18:00
FM221500 30015G30KT P6SM FEW020 BKN030
Wind Visibility Clouds
300° at 15 knots
 Gusting to 30 knots
Greater than 6 miles
  • Few at 2,000' AGL
  • Broken at 3,000' AGL
From Jan-22 @ 18:00 to Jan-22 @ 20:00
FM221800 30018G30KT P6SM FEW030
Wind Visibility Clouds
300° at 18 knots
 Gusting to 30 knots
Greater than 6 miles
  • Few at 3,000' AGL
Becoming Jan-22 @ 20:00 to Jan-23 @ 00:00
BECMG 2220/2222 29015G25KT RMK FCST BASED ON AUTO OBS. NXT FCST BY 221800Z
Wind Visibility Clouds
290° at 15 knots
 Gusting to 25 knots
Greater than 6 miles
  • Few at 3,000' AGL
TAF CYFC 221139Z 2212/2224 29012G22KT P6SM SCT060 TEMPO 2212/2215 5SM -SN BKN030 BKN060 FM221500 30015G30KT P6SM FEW020 BKN030 FM221800 30018G30KT P6SM FEW030 BECMG 2220/2222 29015G25KT RMK FCST BASED ON AUTO OBS. NXT FCST BY 221800Z
Issued Jan-22 @ 11:39 UTC
(6 hours ago)
Valid From Jan-22 @ 12:00 UTC
(6 hours ago)
Valid To Jan-23 @ 00:00 UTC
(in 6 hours)
Jan-22 @ 12:00 - Jan-22 @ 15:00
Wind Visibility
290° at 12 knots
 Gusting to 22 knots
Greater than 6 miles
Clouds
  • Scattered at 6,000' AGL
Jan-22 @ 12:00 - Jan-22 @ 15:00
Clouds
  • Broken at 3,000' AGL
  • Broken at 6,000' AGL
Conditions
  • Light Snow
From Jan-22 @ 15:00 - Jan-22 @ 18:00
Wind Visibility
300° at 15 knots
 Gusting to 30 knots
Greater than 6 miles
Clouds
  • Few at 2,000' AGL
  • Broken at 3,000' AGL
From Jan-22 @ 18:00 - Jan-22 @ 20:00
Wind Visibility
300° at 18 knots
 Gusting to 30 knots
Greater than 6 miles
Clouds
  • Few at 3,000' AGL
Becoming Jan-22 @ 20:00 - Jan-23 @ 00:00
Wind Visibility
290° at 15 knots
 Gusting to 25 knots
Greater than 6 miles
Clouds
  • Few at 3,000' AGL